Pagrindinis puslapis
METAR-TAF:

METAR-TAF

Oro uostai :

Tarptautinis Philip S. W. Goldson oro uostas

Belizas, Belizas

platuma: 17-32N, ilguma: 088-18W, Aukštis: 5 m

Dabartinis oras

Ataskaita buvo paskelbta 1 valandą ir 22 minutes, ne 22:00 UTC
Vėjas 7 kt iš Rytų
Temperatūra 30°C
Drėgmė 75%
Slėgis 1017 hPa
Matomumas 10 km arba daugiau
Mažai debesys ne aukštis 2300 ft

METAR: MZBZ 212200Z 10007KT 9999 FEW023 30/25 A3004 Q1017 NOSIG

Laikas: 17:22 (23:22 UTC)

Prognozė

Ataskaita buvo paskelbta 8 valandos ir 22 minutes, ne 15:00 UTC
Prognozė galioja nuo 21 metu 18 UTC su 22 metu 18 UTC
Vėjas 8 kt iš Šiaurės/Šiaurės Rytų
Matomumas 10 km arba daugiau
Išsisklaidę debesys ne aukštis 2200 ft
Tikimybė 30% :
Laikinai
nuo 22 metu 05 UTC su 22 metu 11 UTC
Matomumas: 5000 m
Su prošvaistėmis ne aukštis 1500 ft
Su prošvaistėmis ne aukštis 3500 ft
lietus

TAF: MZBZ 211500Z 2118/2218 02008KT 9999 SCT022 PROB30 TEMPO 2205/2211 5000 SHRA BKN015 BKN035

Orai ataskaitas ir orų prognozės (METAR, TAF).

turimą stotys yra geltonos ir raudonos taškus žemėlapyje.

Perkelti pele per norėdami pamatyti stoties vardą.

Tada spustelėkite, norėdami matyti oro stebėjimo ir prognozės.

Norėdami pakeisti žemėlapį: spustelėkite ant žalios mygtukų su juodo kryžiaus žemyn,; žalią mygtuką su brūkšneliu, jei norite nutolinti; arba žalių rodyklių gretimoms žemėlapius.


METAR-TAF: